Auvergne, Arkansas
Current Conditions -  °F | °C
As of 10:56 PM on Sunday 19 Oct 2014 (Local Time) from KM19 Reporting Station
Clear Clear  
Wind Chill: 54°   Ceiling: Unl
Heat Index: 54°   Visibility: 10mi
Dew Point: 48°   Wind: 6mph
Humidity: 80%   Direction: 200°SSW
Pressure: 30.11"   Gusts: NA
Location:  35.5678°N, 91.2073°W
Report Text: KM19 200356Z AUTO 20005KT 10SM CLR 12/09 A3011 RMK AO2 T01220088 SLP196
Loading
Personal Weather Stations






























Interactive Weather Map
Tropical Storm Tracking
New forecast layout! Learn more

10-Day Weather Forecast

Advertisements
Track Severe Weather on mobile